Time;durP1;ratioP1;P1;durP2;ratioP2;P2;SDS_P1;SDS_P2;PMS_P1;PMS_P2;Temp;Humidity;BMP_temperature;BMP_pressure;BME280_temperature;BME280_humidity;BME280_pressure;Samples;Min_cycle;Max_cycle;Signal;HPM_P1;HPM_P2
2021/07/15 00:00:38;;;;;;;41.03;18.95;;;19.30;99.90;;;19.46;96.05;101363.94;4937120;29;20481;-77
2021/07/15 00:03:10;;;;;;;40.10;19.13;;;19.30;99.90;;;19.33;95.95;101359.91;4937114;29;20039;-77
2021/07/15 00:05:40;;;;;;;39.33;18.30;;;19.30;99.90;;;19.43;96.37;101364.06;4936794;29;20058;-76
2021/07/15 00:08:10;;;;;;;36.95;19.80;;;19.30;99.90;;;19.22;96.18;101345.94;4937207;29;20461;-76
2021/07/15 00:10:43;;;;;;;38.60;19.75;;;19.20;99.90;;;19.50;96.01;101381.72;4937095;29;20485;-76
2021/07/15 00:13:13;;;;;;;40.15;19.90;;;19.30;99.90;;;19.51;96.20;101378.97;4937246;29;20047;-77
2021/07/15 00:15:48;;;;;;;39.70;20.15;;;19.30;99.90;;;19.43;95.87;101380.16;4936131;29;20044;-77
2021/07/15 00:18:21;;;;;;;39.17;20.20;;;19.30;99.90;;;19.45;96.08;101379.16;4937012;29;20400;-77
2021/07/15 00:20:50;;;;;;;36.40;20.73;;;19.30;99.90;;;19.46;96.04;101385.41;4936994;29;20066;-76
2021/07/15 00:23:19;;;;;;;38.83;19.95;;;19.30;99.90;;;19.49;96.05;101388.03;4936898;29;20123;-76
2021/07/15 00:25:48;;;;;;;36.05;20.08;;;19.30;99.90;;;19.54;95.77;101384.25;4936783;29;20051;-77
2021/07/15 00:28:18;;;;;;;40.72;19.77;;;19.30;99.90;;;19.50;95.51;101377.22;4936813;29;20405;-77
2021/07/15 00:30:48;;;;;;;40.17;19.88;;;19.40;99.90;;;19.63;95.10;101383.06;4936767;29;20051;-78
2021/07/15 00:33:17;;;;;;;36.95;20.23;;;19.40;99.90;;;19.71;94.99;101394.41;4919518;29;20142;-77
2021/07/15 00:35:46;;;;;;;36.35;19.60;;;19.50;99.90;;;19.61;94.91;101384.91;4936470;29;20066;-77
2021/07/15 00:38:14;;;;;;;36.70;19.70;;;19.50;99.90;;;19.38;95.39;101363.31;4936647;29;20430;-76
2021/07/15 00:40:43;;;;;;;34.42;20.60;;;19.40;99.90;;;19.56;95.14;101393.13;4936517;29;20040;-77
2021/07/15 00:43:12;;;;;;;36.53;19.85;;;19.40;99.90;;;19.56;95.21;101378.81;4936578;29;20128;-77
2021/07/15 00:45:40;;;;;;;41.95;20.60;;;19.40;99.90;;;19.56;95.21;101378.81;4936517;29;20072;-76
2021/07/15 00:48:11;;;;;;;42.22;21.40;;;19.40;99.90;;;19.47;95.17;101381.81;4936209;29;20493;-77
2021/07/15 00:50:40;;;;;;;44.20;22.20;;;19.40;99.90;;;19.56;95.14;101384.19;4936619;29;20106;-78
2021/07/15 00:53:09;;;;;;;43.88;22.83;;;19.40;99.90;;;19.57;95.01;101383.25;4936491;29;20056;-77
2021/07/15 00:55:41;;;;;;;39.47;20.98;;;19.40;99.90;;;19.69;94.85;101393.59;4936475;29;20039;-77
2021/07/15 00:58:12;;;;;;;37.50;19.75;;;19.50;99.90;;;19.71;94.55;101378.31;4936142;29;20052;-77
2021/07/15 01:00:48;;;;;;;38.72;19.88;;;19.50;99.90;;;19.69;94.24;101374.78;4936424;29;20142;-76
2021/07/15 01:03:20;;;;;;;38.88;20.00;;;19.50;99.90;;;19.32;95.64;101374.22;4936209;29;20163;-76
2021/07/15 01:05:51;;;;;;;40.28;20.23;;;19.30;99.90;;;19.47;95.66;101379.13;4936248;29;20055;-77
2021/07/15 01:08:21;;;;;;;33.75;20.77;;;19.30;99.90;;;19.36;95.37;101346.38;4919081;29;20048;-77
2021/07/15 01:10:56;;;;;;;37.35;20.65;;;19.40;99.90;;;19.36;95.38;101351.75;4936288;29;20102;-76
2021/07/15 01:13:39;;;;;;;33.35;19.40;;;19.30;99.90;;;19.42;95.31;101379.28;4936391;29;20055;-75
2021/07/15 01:16:23;;;;;;;44.83;21.77;;;19.30;99.90;;;19.47;95.46;101374.63;4936224;29;20122;-77
2021/07/15 01:19:44;;;;;;;38.55;20.73;;;19.30;99.90;;;19.25;95.86;101343.16;4936101;29;20048;-76
2021/07/15 01:22:19;;;;;;;39.47;21.13;;;19.20;99.90;;;19.35;95.89;101371.47;4919146;29;20055;-76
2021/07/15 01:25:32;;;;;;;35.40;21.65;;;19.20;99.90;;;19.22;95.77;101340.59;4936090;29;20118;-76
2021/07/15 01:28:06;;;;;;;37.28;21.25;;;19.20;99.90;;;19.41;95.85;101387.38;4940138;29;20048;-76
2021/07/15 01:30:43;;;;;;;49.05;22.80;;;19.30;99.90;;;19.31;96.18;101396.63;4940075;29;20111;-78
2021/07/15 01:33:17;;;;;;;36.78;21.10;;;19.20;99.90;;;19.43;96.12;101390.91;4939960;29;20111;-76
2021/07/15 01:35:51;;;;;;;43.22;22.13;;;19.20;99.90;;;19.48;95.67;101402.34;4939930;29;20055;-77
2021/07/15 01:38:25;;;;;;;31.25;19.77;;;19.30;99.90;;;19.41;95.62;101392.75;4939889;29;20486;-77
2021/07/15 01:41:02;;;;;;;35.50;19.98;;;19.30;99.90;;;19.50;95.37;101395.13;4939895;29;20083;-76
2021/07/15 01:43:35;;;;;;;37.22;20.27;;;19.30;99.90;;;19.44;95.36;101390.84;4939792;29;20048;-77
2021/07/15 01:46:05;;;;;;;39.25;19.08;;;19.30;99.90;;;19.46;95.33;101383.63;4939681;29;20115;-76
2021/07/15 01:48:34;;;;;;;;;;;19.30;99.90;;;19.36;96.07;101387.53;4940138;29;20054;-78
2021/07/15 01:51:02;;;;;;;27.98;17.75;;;19.20;99.90;;;19.48;95.79;101394.28;4939689;29;19970;-76
2021/07/15 01:53:32;;;;;;;38.95;19.95;;;19.30;99.90;;;19.50;95.30;101390.66;4939719;29;20115;-77
2021/07/15 01:56:01;;;;;;;33.40;18.95;;;19.30;99.90;;;19.51;95.39;101383.47;4922473;29;20043;-76
2021/07/15 01:58:33;;;;;;;34.72;19.05;;;19.30;99.90;;;19.46;95.37;101390.78;4922529;29;20420;-77
2021/07/15 02:01:04;;;;;;;41.00;19.20;;;19.20;99.90;;;19.50;95.40;101398.69;4939328;29;20044;-77
2021/07/15 02:03:34;;;;;;;35.17;18.58;;;19.30;99.90;;;19.46;95.11;101388.09;4939085;29;20054;-76
2021/07/15 02:06:04;;;;;;;33.55;18.73;;;19.30;99.90;;;19.37;95.72;101385.72;4939180;29;20083;-77
2021/07/15 02:08:34;;;;;;;37.10;20.45;;;19.20;99.90;;;19.44;95.68;101387.28;4939406;29;20048;-77
2021/07/15 02:11:03;;;;;;;34.85;18.42;;;19.20;99.90;;;18.97;95.57;101307.44;4922112;29;20108;-77
2021/07/15 02:13:34;;;;;;;32.72;18.88;;;19.20;99.90;;;19.20;95.95;101363.91;4939049;29;20044;-77
2021/07/15 02:16:07;;;;;;;32.45;18.83;;;19.20;99.90;;;19.41;95.95;101390.97;4938973;29;20048;-77
2021/07/15 02:18:37;;;;;;;35.10;18.52;;;19.20;99.90;;;19.39;95.74;101373.13;4939183;29;20122;-77
2021/07/15 02:21:06;;;;;;;30.50;18.07;;;19.20;99.90;;;19.36;95.86;101376.78;4922033;29;20111;-76
2021/07/15 02:23:37;;;;;;;36.75;19.25;;;19.20;99.90;;;19.35;95.65;101360.75;4938873;29;20052;-76
2021/07/15 02:26:07;;;;;;;31.48;19.23;;;19.20;99.90;;;19.28;96.57;101367.22;4939025;29;20110;-76
2021/07/15 02:28:35;;;;;;;43.10;19.13;;;19.10;99.90;;;19.36;96.28;101365.16;4921939;29;20450;-76
2021/07/15 02:31:13;;;;;;;32.15;18.33;;;19.10;99.90;;;19.41;96.04;101363.25;4938874;29;20048;-77
2021/07/15 02:33:48;;;;;;;31.92;18.70;;;19.20;99.90;;;19.42;95.80;101356.91;4939020;29;20051;-78
2021/07/15 02:36:19;;;;;;;31.00;17.67;;;19.30;99.90;;;19.27;96.12;101346.66;4938941;29;20122;-77
2021/07/15 02:38:50;;;;;;;35.20;18.45;;;19.20;99.90;;;19.29;96.36;101336.75;4920692;29;20043;-77
2021/07/15 02:41:18;;;;;;;31.52;18.25;;;19.10;99.90;;;19.25;96.61;101343.16;4938815;29;20052;-77
2021/07/15 02:43:47;;;;;;;36.95;19.35;;;19.00;99.90;;;19.04;96.74;101325.06;4939010;29;20079;-77
2021/07/15 02:46:20;;;;;;;38.83;19.77;;;19.00;99.90;;;19.16;97.07;101346.16;4938655;29;20043;-76
2021/07/15 02:48:49;;;;;;;36.63;19.50;;;19.00;99.90;;;19.26;96.88;101343.09;4938660;29;20071;-77
2021/07/15 02:51:17;;;;;;;37.47;20.33;;;19.10;99.90;;;19.21;96.79;101345.06;4921568;29;20457;-77
2021/07/15 02:53:46;;;;;;;38.47;20.40;;;19.00;99.90;;;19.14;96.96;101348.88;4938625;29;20063;-77
2021/07/15 02:56:23;;;;;;;40.63;21.00;;;19.00;99.90;;;19.08;97.47;101341.03;4938148;29;20098;-77
2021/07/15 02:59:08;;;;;;;35.50;20.05;;;19.00;99.90;;;19.12;97.47;101341.81;4938573;29;20052;-76
2021/07/15 03:01:47;;;;;;;41.70;21.13;;;19.00;99.90;;;19.16;97.47;101341.66;4938394;29;20059;-77
2021/07/15 03:04:27;;;;;;;41.17;21.00;;;19.00;99.90;;;19.14;97.45;101338.16;4938490;29;20078;-77
2021/07/15 03:06:56;;;;;;;40.93;21.23;;;19.00;99.90;;;19.19;97.48;101352.28;4938303;29;20044;-77
2021/07/15 03:09:28;;;;;;;35.03;20.83;;;19.00;99.90;;;19.20;97.22;101339.75;4937982;29;20386;-77
2021/07/15 03:12:04;;;;;;;39.83;20.90;;;19.10;99.90;;;18.92;97.70;101335.25;4921220;29;20060;-78
2021/07/15 03:14:37;;;;;;;43.78;20.45;;;18.90;99.90;;;19.01;97.72;101341.28;4938322;29;20446;-78
2021/07/15 03:17:11;;;;;;;43.10;22.00;;;18.90;99.90;;;19.05;97.67;101350.97;4937951;29;20103;-78
2021/07/15 03:19:47;;;;;;;41.58;22.45;;;18.90;99.90;;;19.08;97.81;101348.19;4938121;29;20055;-77
2021/07/15 03:22:17;;;;;;;37.72;20.00;;;18.90;99.90;;;19.10;97.47;101341.84;4938267;29;20668;-78
2021/07/15 03:24:55;;;;;;;42.78;20.85;;;18.90;99.90;;;19.14;97.30;101346.19;4938043;29;20128;-76
2021/07/15 03:27:27;;;;;;;40.28;19.45;;;19.00;99.90;;;19.02;97.03;101324.25;4937971;29;20052;-77
2021/07/15 03:29:59;;;;;;;45.35;20.23;;;19.00;99.90;;;19.17;97.26;101353.25;4937589;29;20596;-77
2021/07/15 03:32:30;;;;;;;38.25;19.83;;;19.00;99.90;;;19.13;97.04;101344.44;4937923;29;20058;-75
2021/07/15 03:34:59;;;;;;;53.92;19.65;;;19.00;99.90;;;19.04;97.30;101359.94;4937900;29;20052;-78
2021/07/15 03:37:28;;;;;;;45.05;19.70;;;18.90;99.90;;;19.10;97.17;101359.75;4937573;29;20394;-77
2021/07/15 03:39:57;;;;;;;48.30;18.92;;;18.90;99.90;;;19.23;96.79;101353.06;4937428;29;20506;-77
2021/07/15 03:42:28;;;;;;;42.92;20.23;;;19.00;99.90;;;19.29;96.47;101352.84;4937840;29;20055;-78
2021/07/15 03:45:00;;;;;;;33.92;16.38;;;19.10;99.90;;;19.33;95.75;101355.44;4937742;29;20052;-77
2021/07/15 03:47:30;;;;;;;34.35;16.60;;;19.20;99.90;;;19.26;95.43;101358.34;4920646;29;20051;-77
2021/07/15 03:50:00;;;;;;;36.63;17.42;;;19.10;99.90;;;19.02;95.25;101316.19;4937376;29;20134;-78
2021/07/15 03:52:28;;;;;;;30.58;16.00;;;19.10;99.90;;;19.27;94.89;101362.75;4937374;29;20103;-77
2021/07/15 03:54:58;;;;;;;32.08;16.17;;;19.10;99.90;;;19.30;94.92;101368.03;4937649;29;20047;-77
2021/07/15 03:57:28;;;;;;;33.35;16.52;;;19.20;99.90;;;19.32;94.53;101368.84;4937599;29;20078;-77
2021/07/15 03:59:59;;;;;;;32.92;15.65;;;19.20;99.90;;;19.25;94.44;101359.25;4937296;29;20047;-77
2021/07/15 04:02:30;;;;;;;;;;;19.10;99.90;;;19.27;94.52;101363.66;4937807;29;20409;-78
2021/07/15 04:05:00;;;;;;;40.15;17.45;;;19.10;99.90;;;19.32;94.28;101382.25;4937424;29;20394;-77
2021/07/15 04:07:31;;;;;;;43.08;18.00;;;19.20;99.90;;;19.43;93.94;101380.16;4937438;29;20397;-75
2021/07/15 04:10:01;;;;;;;42.17;16.33;;;19.30;99.90;;;19.50;93.57;101379.03;4937065;29;20450;-83
2021/07/15 04:12:33;;;;;;;42.30;16.38;;;19.30;99.90;;;19.48;93.25;101384.44;4936977;29;20465;-76
2021/07/15 04:15:10;;;;;;;42.47;17.35;;;19.30;99.90;;;19.05;93.08;101291.97;4936915;29;20052;-78
2021/07/15 04:17:49;;;;;;;44.70;18.65;;;19.30;99.90;;;19.60;92.69;101383.16;4920053;29;20044;-78
2021/07/15 04:20:21;;;;;;;40.78;16.92;;;19.40;99.90;;;19.64;92.08;101385.72;4937262;29;20118;-77
2021/07/15 04:22:55;;;;;;;43.38;17.70;;;19.40;99.90;;;19.67;91.64;101382.03;4937131;29;20039;-75
2021/07/15 04:25:25;;;;;;;40.25;17.27;;;19.50;99.90;;;19.65;91.50;101392.81;4937085;29;20040;-75
2021/07/15 04:27:59;;;;;;;41.75;17.35;;;19.40;99.90;;;19.48;91.41;101388.94;4937155;29;20386;-75
2021/07/15 04:30:30;;;;;;;41.30;18.30;;;19.40;99.90;;;19.49;91.78;101402.28;4937014;29;20052;-75
2021/07/15 04:33:03;;;;;;;47.03;20.15;;;19.30;99.90;;;19.49;91.69;101404.97;4936734;29;20063;-75
2021/07/15 04:35:36;;;;;;;40.30;18.95;;;19.30;99.90;;;19.56;91.56;101408.34;4936699;29;20409;-75
2021/07/15 04:38:06;;;;;;;40.08;19.38;;;19.30;99.90;;;19.52;91.75;101404.00;4936597;29;20509;-75
2021/07/15 04:40:37;;;;;;;42.55;18.98;;;19.30;99.90;;;19.42;92.24;101408.78;4936545;29;20516;-75
2021/07/15 04:43:09;;;;;;;47.85;20.27;;;19.30;99.90;;;19.44;92.06;101403.38;4936587;29;20051;-77
2021/07/15 04:45:40;;;;;;;50.60;19.98;;;19.20;99.90;;;19.41;91.45;101395.44;4936423;29;20051;-75
2021/07/15 04:48:10;;;;;;;44.42;19.95;;;19.30;99.90;;;18.86;91.88;101322.03;4936648;29;20047;-76
2021/07/15 04:50:39;;;;;;;40.88;19.00;;;19.20;99.90;;;19.39;91.84;101408.91;4936450;29;20055;-75
2021/07/15 04:53:12;;;;;;;48.17;19.60;;;19.30;99.90;;;19.45;91.54;101415.88;4936510;29;20128;-75
2021/07/15 04:55:42;;;;;;;39.85;17.52;;;19.30;99.90;;;19.29;92.03;101403.84;4936794;29;20055;-75
2021/07/15 04:58:11;;;;;;;45.20;19.50;;;19.20;99.90;;;19.31;92.44;101410.03;4936537;29;20107;-75
2021/07/15 05:00:40;;;;;;;39.10;18.02;;;19.10;99.90;;;19.31;92.45;101404.66;4918720;29;20513;-76
2021/07/15 05:03:29;;;;;;;39.20;16.50;;;19.10;99.90;;;19.33;91.92;101425.19;4936096;29;20051;-75
2021/07/15 05:05:58;;;;;;;46.38;17.25;;;19.20;99.90;;;19.28;91.74;101415.50;4936442;29;20552;-76
2021/07/15 05:08:27;;;;;;;40.60;17.15;;;19.20;99.90;;;19.14;92.57;101404.31;4936532;29;20383;-75
2021/07/15 05:10:56;;;;;;;38.15;16.23;;;19.10;99.90;;;19.23;92.17;101422.81;4936439;29;20119;-76
2021/07/15 05:13:28;;;;;;;38.80;16.50;;;19.10;99.90;;;19.28;92.03;101424.41;4936091;29;20559;-76
2021/07/15 05:15:57;;;;;;;36.33;16.20;;;19.10;99.90;;;19.35;91.59;101433.19;4936566;29;20055;-75
2021/07/15 05:18:27;;;;;;;46.58;16.88;;;19.20;99.90;;;19.37;91.55;101434.03;4936205;29;20047;-76
2021/07/15 05:20:55;;;;;;;36.23;15.13;;;19.20;99.90;;;19.21;91.50;101427.34;4936237;29;20044;-76
2021/07/15 05:23:24;;;;;;;37.15;15.13;;;19.10;99.90;;;19.32;91.65;101417.13;4936241;29;20091;-75
2021/07/15 05:25:54;;;;;;;32.70;16.10;;;19.10;99.90;;;19.28;90.89;101402.09;4936239;29;20520;-76
2021/07/15 05:28:24;;;;;;;35.40;15.35;;;19.20;99.90;;;19.48;90.39;101424.69;4936335;29;20053;-76
2021/07/15 05:30:53;;;;;;;;;;;19.20;99.90;;;19.49;90.18;101428.28;4936838;29;20493;-75
2021/07/15 05:33:22;;;;;;;35.15;15.27;;;19.40;99.90;;;19.37;90.20;101418.81;4935855;29;19994;-75
2021/07/15 05:35:52;;;;;;;40.80;15.32;;;19.30;99.90;;;19.44;89.93;101431.09;4918951;29;20523;-76
2021/07/15 05:38:20;;;;;;;38.95;16.17;;;19.30;99.90;;;19.45;90.18;101416.72;4936094;29;20048;-76
2021/07/15 05:40:49;;;;;;;45.58;16.85;;;19.30;99.90;;;19.32;90.61;101422.50;4935806;29;20099;-75
2021/07/15 05:43:17;;;;;;;41.97;16.20;;;19.20;99.90;;;19.25;90.66;101423.63;4918771;29;20504;-76
2021/07/15 05:45:46;;;;;;;35.88;16.65;;;19.10;99.90;;;18.78;90.45;101325.88;4935682;29;20401;-75
2021/07/15 05:48:14;;;;;;;35.55;15.68;;;19.20;99.90;;;19.45;89.93;101431.97;4935943;29;20098;-75
2021/07/15 05:50:43;;;;;;;33.42;16.38;;;19.20;99.90;;;19.47;89.81;101435.50;4935832;29;20181;-76
2021/07/15 05:53:12;;;;;;;36.72;15.75;;;19.30;99.90;;;19.42;89.80;101440.09;4935875;29;20036;-76
2021/07/15 05:55:41;;;;;;;36.27;15.87;;;19.30;99.90;;;19.49;89.27;101431.81;4935706;29;20058;-75
2021/07/15 05:58:09;;;;;;;35.83;16.20;;;19.30;99.90;;;19.53;89.17;101435.31;4935611;29;20379;-76
2021/07/15 06:00:38;;;;;;;36.33;16.33;;;19.40;99.90;;;19.61;88.86;101442.16;4935956;29;20066;-76
2021/07/15 06:03:07;;;;;;;31.88;15.13;;;19.40;99.90;;;19.56;88.53;101437.88;4935717;29;20062;-76
2021/07/15 06:05:37;;;;;;;33.08;15.45;;;19.40;99.90;;;19.64;88.04;101455.50;4935792;29;20497;-75
2021/07/15 06:08:07;;;;;;;31.23;15.27;;;19.50;99.90;;;19.61;88.24;101454.69;4935447;29;20489;-75
2021/07/15 06:10:38;;;;;;;40.17;14.27;;;19.40;99.90;;;19.56;88.18;101457.53;4935635;29;20051;-75
2021/07/15 06:13:07;;;;;;;28.83;14.73;;;19.40;99.90;;;19.62;88.15;101459.16;4921253;29;20074;-75
2021/07/15 06:15:35;;;;;;;39.30;15.13;;;19.50;99.90;;;19.60;88.29;101456.53;4939268;29;20051;-73
2021/07/15 06:18:04;;;;;;;33.83;14.55;;;19.50;99.90;;;19.58;88.16;101458.38;4938862;29;20107;-79
2021/07/15 06:20:32;;;;;;;34.13;13.55;;;19.50;99.90;;;19.53;88.12;101463.00;4922142;29;20453;-78
2021/07/15 06:23:01;;;;;;;28.20;14.27;;;19.40;99.90;;;19.59;88.14;101468.16;4939240;29;20071;-80
2021/07/15 06:25:32;;;;;;;29.90;15.20;;;19.40;99.90;;;19.41;88.03;101460.72;4939006;29;20110;-79
2021/07/15 06:28:02;;;;;;;33.88;14.70;;;19.40;99.90;;;19.53;88.13;101468.38;4939316;29;20103;-79
2021/07/15 06:30:32;;;;;;;32.45;14.02;;;19.40;99.90;;;19.58;87.71;101462.84;4939220;29;20052;-78
2021/07/15 06:33:01;;;;;;;39.78;16.60;;;19.50;99.90;;;19.51;87.98;101454.13;4938999;29;20477;-79
2021/07/15 06:35:29;;;;;;;35.28;15.52;;;19.40;99.90;;;19.62;87.91;101456.47;4938902;29;20194;-78
2021/07/15 06:37:58;;;;;;;31.65;14.18;;;19.40;99.90;;;19.62;87.61;101451.09;4921765;29;20557;-80
2021/07/15 06:40:27;;;;;;;34.15;15.65;;;19.50;99.90;;;19.57;87.69;101463.78;4938604;29;20047;-81
2021/07/15 06:42:55;;;;;;;34.33;14.73;;;19.40;99.90;;;19.65;87.54;101473.34;4938801;29;20560;-79
2021/07/15 06:45:25;;;;;;;31.77;14.88;;;19.40;99.90;;;19.74;87.26;101474.88;4938820;29;20052;-77
2021/07/15 06:47:54;;;;;;;34.65;15.18;;;19.50;99.90;;;19.63;86.67;101469.84;4938635;29;20058;-80
2021/07/15 06:50:23;;;;;;;37.60;15.35;;;19.50;99.90;;;19.60;86.95;101453.84;4940675;29;20130;-80
2021/07/15 06:52:51;;;;;;;36.03;16.02;;;19.50;99.90;;;19.62;87.04;101467.22;4938587;29;20461;-75
2021/07/15 06:55:20;;;;;;;44.13;16.42;;;19.50;99.90;;;19.67;87.21;101465.25;4938524;29;20056;-75
2021/07/15 06:57:48;;;;;;;38.33;15.77;;;19.50;99.90;;;19.57;87.21;101469.13;4938648;29;20098;-76
2021/07/15 07:00:20;;;;;;;37.90;15.70;;;19.40;99.90;;;19.45;86.93;101430.16;4938577;29;20047;-73
2021/07/15 07:02:49;;;;;;;32.38;15.13;;;19.50;99.90;;;19.65;86.70;101462.59;4938517;29;20075;-77
2021/07/15 07:05:18;;;;;;;35.03;15.38;;;19.50;99.90;;;19.73;86.28;101473.09;4938193;29;20083;-77
2021/07/15 07:07:47;;;;;;;29.40;14.65;;;19.60;99.90;;;19.72;86.00;101471.34;4938233;29;20124;-81
2021/07/15 07:10:17;;;;;;;28.38;14.38;;;19.60;99.90;;;19.66;85.87;101458.13;4938147;29;20083;-75
2021/07/15 07:12:46;;;;;;;29.80;14.35;;;19.60;99.90;;;19.88;85.50;101485.16;4938492;29;20471;-75
2021/07/15 07:15:18;;;;;;;32.13;14.63;;;19.70;99.90;;;19.93;85.13;101485.88;4938380;29;20416;-76
2021/07/15 07:17:47;;;;;;;35.95;14.60;;;19.70;99.90;;;19.96;84.78;101489.34;4921262;29;20489;-76
2021/07/15 07:20:17;;;;;;;28.20;14.25;;;19.80;99.90;;;20.08;84.69;101491.63;4937850;29;20707;-78
2021/07/15 07:22:46;;;;;;;29.58;14.52;;;19.90;99.90;;;20.15;84.29;101498.53;4938131;29;20446;-80
2021/07/15 07:25:16;;;;;;;29.48;13.70;;;19.90;99.90;;;20.16;83.91;101507.47;4920466;29;20070;-78
2021/07/15 07:27:45;;;;;;;25.15;13.88;;;20.00;99.90;;;19.90;83.47;101481.47;4938236;29;20469;-79
2021/07/15 07:30:17;;;;;;;28.30;13.55;;;19.90;99.90;;;20.10;83.47;101513.06;4938067;29;20067;-82
2021/07/15 07:32:47;;;;;;;27.48;13.50;;;19.90;99.90;;;19.61;82.98;101444.84;4937935;29;20439;-78
2021/07/15 07:35:18;;;;;;;27.73;13.27;;;19.90;99.90;;;20.04;83.28;101530.25;4938049;29;20228;-83
2021/07/15 07:37:47;;;;;;;26.85;13.80;;;19.90;99.90;;;20.04;83.10;101516.81;4938018;29;20295;-82
2021/07/15 07:40:17;;;;;;;26.13;13.18;;;19.90;99.90;;;20.12;83.23;101530.88;4937702;29;20082;-85
2021/07/15 07:42:47;;;;;;;37.05;13.85;;;19.90;99.90;;;20.00;84.06;101519.66;4937594;29;20461;-81
2021/07/15 07:45:17;;;;;;;34.95;14.80;;;19.90;99.90;;;20.03;83.47;101533.88;4937805;29;20047;-81
2021/07/15 07:47:46;;;;;;;27.33;13.45;;;19.90;99.90;;;20.04;83.49;101518.63;4937660;29;20442;-80
2021/07/15 07:50:18;;;;;;;28.95;13.65;;;19.90;99.90;;;20.17;83.28;101536.97;4937988;29;20047;-75
2021/07/15 07:52:47;;;;;;;30.63;13.52;;;20.00;99.90;;;20.01;82.79;101533.06;4937866;29;20091;-75
2021/07/15 07:55:15;;;;;;;20.65;13.02;;;19.90;99.90;;;20.08;82.76;101539.09;4937832;29;20099;-74
2021/07/15 07:57:46;;;;;;;30.23;13.57;;;19.90;99.90;;;19.96;82.76;101532.31;4937508;29;20504;-71
2021/07/15 08:00:18;;;;;;;31.33;13.80;;;19.80;99.90;;;19.97;82.83;101547.50;4920558;29;20087;-78
2021/07/15 08:02:48;;;;;;;29.33;13.60;;;19.90;99.90;;;19.96;82.90;101536.78;4937468;29;20118;-82
2021/07/15 08:05:22;;;;;;;29.70;12.88;;;19.80;99.90;;;20.00;82.94;101533.09;4937082;29;20060;-76
2021/07/15 08:07:51;;;;;;;24.40;12.95;;;19.90;99.90;;;20.06;83.01;101544.53;4937380;29;20051;-76
2021/07/15 08:10:21;;;;;;;27.63;12.75;;;19.90;99.90;;;20.23;82.76;101542.19;4937401;29;20052;-72
2021/07/15 08:12:51;;;;;;;28.13;12.63;;;20.00;99.90;;;20.19;82.54;101523.56;4920278;29;20051;-69
2021/07/15 08:15:20;;;;;;;23.67;12.82;;;20.10;99.90;;;20.30;82.27;101542.88;4936998;29;20051;-69
2021/07/15 08:17:48;;;;;;;27.88;13.65;;;20.10;99.90;;;20.11;82.13;101504.94;4937151;29;20051;-69
2021/07/15 08:20:18;;;;;;;28.80;13.25;;;20.20;99.90;;;20.47;81.93;101562.00;4936840;29;20035;-69
2021/07/15 08:22:47;;;;;;;28.25;13.80;;;20.30;99.90;;;20.46;81.64;101552.19;4920160;29;20055;-69
2021/07/15 08:25:19;;;;;;;23.83;12.38;;;20.30;99.90;;;20.41;81.43;101556.81;4936767;29;20066;-69
2021/07/15 08:27:48;;;;;;;29.35;13.23;;;20.30;99.90;;;20.51;81.21;101553.78;4937075;29;20070;-69
2021/07/15 08:30:19;;;;;;;25.73;13.02;;;20.30;99.90;;;20.52;81.08;101551.94;4936934;29;20051;-69
2021/07/15 08:32:47;;;;;;;26.05;13.07;;;20.40;99.90;;;20.61;80.77;101562.41;4936620;29;20130;-68
2021/07/15 08:35:27;;;;;;;24.13;12.45;;;20.40;99.90;;;20.69;80.47;101579.16;4936269;29;20070;-69
2021/07/15 08:37:56;;;;;;;23.40;12.93;;;20.50;99.90;;;20.59;80.14;101566.94;4936689;29;20114;-68
2021/07/15 08:40:26;;;;;;;25.92;14.20;;;20.50;99.90;;;20.65;79.98;101577.50;4936867;29;20103;-69
2021/07/15 08:42:55;;;;;;;22.52;12.23;;;20.50;99.90;;;20.65;79.97;101582.88;4936796;29;20082;-69
2021/07/15 08:45:25;;;;;;;27.08;13.05;;;20.50;99.90;;;20.62;79.98;101569.53;4936767;29;20052;-69
2021/07/15 08:47:57;;;;;;;27.87;13.40;;;20.50;99.90;;;20.60;79.86;101580.34;4936706;29;20048;-69
2021/07/15 08:50:30;;;;;;;30.83;13.25;;;20.50;99.90;;;20.69;79.74;101573.78;4936606;29;20326;-69
2021/07/15 08:53:04;;;;;;;29.90;12.73;;;20.50;99.90;;;20.79;79.59;101587.78;4936688;29;20078;-69
2021/07/15 08:58:27;;;;;;;24.38;12.55;;;20.50;99.90;;;20.66;79.80;101585.50;4923881;29;20089;-73
2021/07/15 09:00:55;;;;;;;33.67;13.07;;;20.50;99.90;;;20.65;79.58;101589.09;4936658;29;20094;-74
2021/07/15 09:03:24;;;;;;;24.25;12.85;;;20.50;99.90;;;20.59;79.74;101592.03;4936085;29;20486;-69
2021/07/15 09:05:54;;;;;;;28.88;13.50;;;20.50;99.90;;;20.69;79.77;101600.66;4935963;29;20539;-74
2021/07/15 09:08:23;;;;;;;25.80;12.45;;;20.50;99.90;;;20.53;79.89;101578.81;4936002;29;20046;-74
2021/07/15 09:10:51;;;;;;;28.33;13.05;;;20.40;99.90;;;20.51;79.35;101591.41;4936120;29;20067;-70
2021/07/15 09:13:20;;;;;;;25.73;12.65;;;20.40;99.90;;;20.49;79.28;101601.34;4936298;29;20130;-75
2021/07/15 09:15:53;;;;;;;26.40;12.65;;;20.30;99.90;;;20.47;79.71;101595.13;4936168;29;20524;-75
2021/07/15 09:18:21;;;;;;;24.73;12.55;;;20.30;99.90;;;20.50;79.68;101603.06;4936273;29;20048;-80
2021/07/15 09:20:50;;;;;;;27.85;13.23;;;20.40;99.90;;;20.45;79.96;101605.06;4918967;29;20123;-73
2021/07/15 09:23:20;;;;;;;28.98;13.30;;;20.30;99.90;;;20.39;79.84;101604.38;4935946;29;20040;-73
2021/07/15 09:25:58;;;;;;;27.35;13.27;;;20.30;99.90;;;20.37;79.72;101609.81;4936229;29;20134;-73
2021/07/15 09:28:32;;;;;;;27.73;13.75;;;20.30;99.90;;;20.52;79.74;101611.09;4935960;29;20520;-74
2021/07/15 09:31:20;;;;;;;23.83;12.77;;;20.40;99.90;;;20.56;79.41;101620.81;4936157;29;20056;-73
2021/07/15 09:33:49;;;;;;;19.50;11.48;;;20.40;99.90;;;20.67;79.29;101619.50;4935807;29;20051;-74
2021/07/15 09:36:21;;;;;;;28.23;13.23;;;20.50;99.90;;;20.66;79.22;101612.41;4919245;29;20497;-73
2021/07/15 09:38:52;;;;;;;26.13;12.65;;;20.50;99.90;;;20.60;79.24;101611.72;4936161;29;20273;-73
2021/07/15 09:41:21;;;;;;;22.77;13.10;;;20.50;99.90;;;20.69;79.26;101628.41;4919252;29;20056;-72
2021/07/15 09:43:49;;;;;;;28.75;13.30;;;20.60;99.90;;;20.58;79.69;101622.53;4935948;29;20048;-73
2021/07/15 09:46:24;;;;;;;24.83;12.88;;;20.50;99.90;;;20.45;80.18;101622.97;4936263;29;20055;-73
2021/07/15 09:49:06;;;;;;;32.60;13.40;;;20.30;99.90;;;20.51;80.10;101617.41;4939646;29;20102;-73
2021/07/15 09:51:40;;;;;;;28.65;13.10;;;20.30;99.90;;;20.51;80.18;101620.97;4939954;29;20059;-73
2021/07/15 09:54:12;;;;;;;26.80;12.30;;;20.40;99.90;;;20.50;79.81;101616.53;4939769;29;20098;-73
2021/07/15 09:56:43;;;;;;;27.92;12.55;;;20.40;99.90;;;20.46;79.80;101604.09;4939563;29;20039;-73
2021/07/15 09:59:12;;;;;;;22.42;12.20;;;20.40;99.90;;;20.61;79.51;101629.63;4922714;29;20044;-73
2021/07/15 10:01:48;;;;;;;20.35;12.35;;;20.40;99.90;;;20.63;79.49;101595.50;4939484;29;20055;-73
2021/07/15 10:04:26;;;;;;;25.63;13.60;;;20.50;99.90;;;20.58;79.30;101602.81;4939271;29;20051;-74
2021/07/15 10:06:57;;;;;;;23.05;12.80;;;20.50;99.90;;;20.79;79.51;101623.59;4939623;29;20138;-73
2021/07/15 10:09:29;;;;;;;28.15;13.70;;;20.60;99.90;;;20.82;79.13;101623.50;4939555;29;20040;-73
2021/07/15 10:12:00;;;;;;;29.05;13.60;;;20.70;99.90;;;20.94;78.39;101631.16;4939163;29;20122;-73
2021/07/15 10:14:36;;;;;;;;;;;20.80;99.90;;;20.86;78.43;101635.91;4939862;29;20071;-73
2021/07/15 10:17:06;;;;;;;30.92;14.10;;;20.80;99.90;;;20.90;78.50;101631.31;4939489;29;19977;-74
2021/07/15 10:19:35;;;;;;;25.70;12.93;;;20.80;99.90;;;20.76;78.70;101614.75;4939353;29;20118;-74